Time;durP1;ratioP1;P1;durP2;ratioP2;P2;SDS_P1;SDS_P2;PMS_P1;PMS_P2;Temp;Humidity;BMP_temperature;BMP_pressure;BME280_temperature;BME280_humidity;BME280_pressure;Samples;Min_cycle;Max_cycle;Signal;HPM_P1;HPM_P2
2022/11/16 00:01:20;;;;;;;7.47;5.10;;;10.60;99.90;;;;;;5009361;28;20452;-67
2022/11/16 00:03:46;;;;;;;7.03;5.60;;;10.60;99.90;;;;;;5000715;28;20497;-67
2022/11/16 00:06:13;;;;;;;6.90;5.93;;;10.60;99.90;;;;;;4998157;28;20474;-67
2022/11/16 00:08:41;;;;;;;6.20;5.60;;;10.60;99.90;;;;;;4999738;28;20797;-66
2022/11/16 00:11:17;;;;;;;6.67;6.07;;;10.50;99.90;;;;;;5003435;28;20502;-65
2022/11/16 00:13:43;;;;;;;10.00;5.50;;;10.50;99.90;;;;;;5000790;28;20468;-66
2022/11/16 00:16:18;;;;;;;10.00;5.50;;;10.40;99.90;;;;;;4990628;28;20458;-65
2022/11/16 00:18:43;;;;;;;6.10;4.80;;;10.30;99.90;;;;;;4999436;28;20182;-65
2022/11/16 00:21:09;;;;;;;6.80;6.20;;;10.30;99.90;;;;;;4993663;28;20437;-65
2022/11/16 00:23:37;;;;;;;6.50;5.90;;;10.30;99.90;;;;;;4993809;28;20458;-66
2022/11/16 00:26:07;;;;;;;7.00;5.60;;;10.20;99.90;;;;;;4994203;28;20512;-65
2022/11/16 00:28:33;;;;;;;6.87;5.10;;;10.10;99.90;;;;;;4999117;28;20446;-66
2022/11/16 00:31:04;;;;;;;6.20;5.20;;;10.10;99.90;;;;;;4992269;28;20947;-66
2022/11/16 00:33:30;;;;;;;4.90;4.53;;;10.10;99.90;;;;;;4989800;28;20449;-66
2022/11/16 00:35:55;;;;;;;6.00;5.50;;;10.10;99.90;;;;;;5001582;28;20462;-66
2022/11/16 00:38:22;;;;;;;7.00;6.40;;;10.10;99.90;;;;;;4996782;28;20199;-65
2022/11/16 00:40:48;;;;;;;8.50;5.70;;;10.00;99.90;;;;;;4999395;28;20190;-66
2022/11/16 00:43:13;;;;;;;6.80;5.97;;;10.00;99.90;;;;;;4998624;28;20967;-67
2022/11/16 00:45:42;;;;;;;6.10;5.60;;;10.00;99.90;;;;;;4995496;28;20470;-66
2022/11/16 00:48:08;;;;;;;9.03;6.07;;;10.00;99.90;;;;;;5001237;28;20649;-66
2022/11/16 00:50:33;;;;;;;7.67;6.43;;;10.00;99.90;;;;;;5002105;28;20521;-66
2022/11/16 00:52:59;;;;;;;6.80;6.10;;;10.00;99.90;;;;;;4999244;28;20525;-65
2022/11/16 00:55:24;;;;;;;6.83;6.23;;;9.90;99.90;;;;;;4993023;28;20671;-66
2022/11/16 00:57:50;;;;;;;6.40;5.43;;;9.90;99.90;;;;;;5001420;28;20874;-66
2022/11/16 01:00:16;;;;;;;7.60;5.97;;;9.90;99.90;;;;;;5002822;28;20732;-66
2022/11/16 01:02:42;;;;;;;6.30;5.70;;;9.90;99.90;;;;;;4996235;28;20217;-67
2022/11/16 01:05:09;;;;;;;6.90;6.20;;;9.80;99.90;;;;;;4991062;28;20473;-68
2022/11/16 01:07:36;;;;;;;6.63;5.93;;;9.90;99.90;;;;;;4999535;28;20183;-67
2022/11/16 01:10:04;;;;;;;7.00;6.40;;;9.80;99.90;;;;;;5006810;28;20460;-65
2022/11/16 01:12:30;;;;;;;7.53;6.70;;;9.80;99.90;;;;;;5008220;28;20817;-66
2022/11/16 01:14:56;;;;;;;6.80;6.10;;;9.80;99.90;;;;;;5002217;28;20439;-66
2022/11/16 01:17:21;;;;;;;7.00;6.30;;;9.80;99.90;;;;;;5003400;28;20633;-68
2022/11/16 01:19:47;;;;;;;6.70;5.83;;;9.80;99.90;;;;;;5002239;28;20198;-67
2022/11/16 01:22:12;;;;;;;7.80;5.53;;;9.80;99.90;;;;;;4995203;28;20278;-67
2022/11/16 01:24:38;;;;;;;7.10;6.40;;;9.80;99.90;;;;;;4993480;28;20611;-67
2022/11/16 01:27:03;;;;;;;8.30;5.80;;;9.80;99.90;;;;;;5002112;28;20204;-67
2022/11/16 01:29:29;;;;;;;6.30;5.80;;;9.80;99.90;;;;;;4995278;28;20191;-67
2022/11/16 01:31:55;;;;;;;6.23;5.63;;;9.80;99.90;;;;;;4994446;28;20188;-67
2022/11/16 01:34:21;;;;;;;6.60;4.97;;;9.80;99.90;;;;;;5001629;28;20183;-67
2022/11/16 01:36:47;;;;;;;6.83;5.50;;;9.80;99.90;;;;;;5003938;28;20814;-67
2022/11/16 01:39:14;;;;;;;5.33;4.87;;;9.80;99.90;;;;;;5002977;28;20441;-67
2022/11/16 01:41:41;;;;;;;10.63;5.67;;;9.80;99.90;;;;;;5003542;28;20183;-67
2022/11/16 01:44:32;;;;;;;7.30;5.10;;;9.80;99.90;;;;;;4999263;28;20799;-67
2022/11/16 01:47:07;;;;;;;5.60;4.80;;;9.80;99.90;;;;;;5001039;28;21735;-67
2022/11/16 01:49:36;;;;;;;7.23;5.17;;;9.80;99.90;;;;;;5002959;28;20426;-68
2022/11/16 01:52:07;;;;;;;5.97;5.27;;;9.80;99.90;;;;;;5002877;28;20438;-67
2022/11/16 01:54:37;;;;;;;6.20;5.60;;;9.80;99.90;;;;;;5002761;28;20434;-67
2022/11/16 01:57:07;;;;;;;7.87;5.50;;;9.70;99.90;;;;;;4999072;28;20458;-67
2022/11/16 01:59:33;;;;;;;6.43;5.80;;;9.80;99.90;;;;;;5005880;28;20433;-67
2022/11/16 02:01:59;;;;;;;7.63;6.50;;;9.70;99.90;;;;;;5002415;28;20438;-67
2022/11/16 02:04:25;;;;;;;6.80;5.90;;;9.70;99.90;;;;;;4997857;28;20427;-67
2022/11/16 02:09:52;;;;;;;6.40;5.80;;;9.70;99.90;;;;;;5000418;28;20478;-67
2022/11/16 02:10:53;;;;;;;7.63;6.87;;;9.70;99.90;;;;;;5000930;28;20545;-67
2022/11/16 02:13:44;;;;;;;8.13;6.37;;;9.60;99.90;;;;;;4996126;28;20786;-67
2022/11/16 02:16:47;;;;;;;6.80;6.20;;;9.60;99.90;;;;;;4992738;28;20456;-67
2022/11/16 02:19:57;;;;;;;10.63;6.40;;;9.60;99.90;;;;;;4991190;28;20456;-68
2022/11/16 02:22:49;;;;;;;5.87;5.37;;;9.60;99.90;;;;;;4984442;28;20430;-68
2022/11/16 02:25:55;;;;;;;6.77;6.17;;;9.70;99.90;;;;;;4992345;28;20873;-68
2022/11/16 02:28:42;;;;;;;8.30;6.13;;;9.70;99.90;;;;;;5003727;28;20437;-68
2022/11/16 02:31:14;;;;;;;6.10;5.50;;;9.70;99.90;;;;;;4999300;28;20849;-67
2022/11/16 02:33:41;;;;;;;6.53;5.10;;;9.70;99.90;;;;;;5002023;28;20526;-68
2022/11/16 02:36:12;;;;;;;6.87;6.27;;;9.70;99.90;;;;;;4999976;28;20988;-68
2022/11/16 02:38:40;;;;;;;6.63;5.93;;;9.70;99.90;;;;;;5002879;28;20450;-68
2022/11/16 02:41:14;;;;;;;6.67;5.37;;;9.70;99.90;;;;;;4991685;28;20784;-68
2022/11/16 02:43:51;;;;;;;6.30;5.37;;;9.80;99.90;;;;;;4998637;28;20947;-68
2022/11/16 02:46:31;;;;;;;6.77;6.07;;;9.70;99.90;;;;;;4998408;28;20466;-68
2022/11/16 02:49:00;;;;;;;6.53;5.37;;;9.70;99.90;;;;;;5004076;28;20497;-68
2022/11/16 02:51:28;;;;;;;5.03;4.47;;;9.70;99.90;;;;;;5004547;28;20431;-68
2022/11/16 02:54:11;;;;;;;5.97;5.47;;;9.70;99.90;;;;;;4996538;28;20442;-68
2022/11/16 02:57:11;;;;;;;6.33;5.47;;;9.70;99.90;;;;;;4999682;28;20464;-68
2022/11/16 02:59:49;;;;;;;7.40;4.73;;;9.80;99.90;;;;;;5002658;28;20441;-68
2022/11/16 03:02:17;;;;;;;6.00;4.60;;;9.80;99.90;;;;;;4996480;28;20572;-68
2022/11/16 03:04:56;;;;;;;6.20;5.17;;;9.80;99.90;;;;;;4998386;28;20465;-68
2022/11/16 03:07:29;;;;;;;5.17;4.67;;;9.80;99.90;;;;;;5007418;28;20496;-68
2022/11/16 03:09:55;;;;;;;5.30;4.80;;;9.80;99.90;;;;;;5003528;28;20430;-68
2022/11/16 03:12:24;;;;;;;5.23;4.73;;;9.80;99.90;;;;;;5000550;28;20541;-68
2022/11/16 03:14:57;;;;;;;4.40;4.00;;;9.80;99.90;;;;;;4999327;28;20444;-68
2022/11/16 03:17:28;;;;;;;5.67;5.10;;;9.80;99.90;;;;;;5000917;28;20426;-68
2022/11/16 03:20:05;;;;;;;7.60;5.47;;;9.90;99.90;;;;;;5004599;28;20441;-68
2022/11/16 03:22:48;;;;;;;3.83;3.53;;;9.90;99.90;;;;;;4998093;28;20847;-67
2022/11/16 03:25:18;;;;;;;6.50;4.70;;;9.90;99.90;;;;;;4992808;28;20538;-67
2022/11/16 03:27:51;;;;;;;5.07;4.67;;;9.90;99.90;;;;;;4991833;28;20466;-67
2022/11/16 03:30:24;;;;;;;4.03;3.73;;;9.90;99.90;;;;;;4997966;28;20480;-68
2022/11/16 03:33:20;;;;;;;4.27;3.77;;;9.90;99.90;;;;;;5001361;28;20445;-67
2022/11/16 03:36:08;;;;;;;7.60;3.53;;;10.00;99.90;;;;;;5001631;28;20809;-67
2022/11/16 03:38:36;;;;;;;4.17;3.87;;;9.90;99.90;;;;;;5003470;28;20449;-67
2022/11/16 03:41:05;;;;;;;4.50;3.77;;;9.90;99.90;;;;;;4994141;28;20450;-67
2022/11/16 03:43:32;;;;;;;3.80;3.50;;;9.90;99.90;;;;;;4996378;28;20474;-67
2022/11/16 03:45:58;;;;;;;3.90;3.60;;;9.90;99.90;;;;;;4998522;28;20845;-68
2022/11/16 03:48:24;;;;;;;3.77;3.47;;;9.90;99.90;;;;;;4998178;28;20437;-68
2022/11/16 03:50:50;;;;;;;4.30;3.90;;;9.90;99.90;;;;;;4999644;28;20691;-68
2022/11/16 03:53:16;;;;;;;6.03;4.20;;;9.90;99.90;;;;;;5004004;28;20179;-67
2022/11/16 03:55:41;;;;;;;7.67;5.50;;;9.80;99.90;;;;;;5003762;28;20990;-68
2022/11/16 03:58:07;;;;;;;5.83;5.10;;;9.80;99.90;;;;;;5003208;28;20568;-68
2022/11/16 04:00:33;;;;;;;6.77;6.03;;;9.80;99.90;;;;;;5003055;28;20195;-68
2022/11/16 04:02:58;;;;;;;7.90;5.17;;;9.80;99.90;;;;;;5000942;28;20189;-68
2022/11/16 04:25:09;;;;;;;4.60;3.23;;;10.00;99.90;;;;;;4990279;28;20464;-68
2022/11/16 04:30:19;;;;;;;4.40;4.10;;;10.10;99.90;;;;;;4992611;28;20442;-67
2022/11/16 04:38:13;;;;;;;4.70;4.10;;;10.20;99.90;;;;;;4991847;28;20481;-68
2022/11/16 04:40:39;;;;;;;3.53;3.23;;;10.10;99.90;;;;;;4989778;28;20905;-68
2022/11/16 04:43:05;;;;;;;4.20;3.80;;;10.10;99.90;;;;;;4996815;28;20195;-67
2022/11/16 04:48:16;;;;;;;4.20;3.83;;;10.10;99.90;;;;;;4997225;28;20268;-68
2022/11/16 04:50:42;;;;;;;3.60;3.30;;;10.10;99.90;;;;;;5001655;28;20426;-67
2022/11/16 04:53:08;;;;;;;4.50;4.10;;;10.20;99.90;;;;;;4990050;28;20526;-67
2022/11/16 04:55:34;;;;;;;3.83;3.27;;;10.20;99.90;;;;;;4999596;28;20775;-67
2022/11/16 04:58:01;;;;;;;4.53;3.93;;;10.20;99.90;;;;;;4994940;28;20437;-67
2022/11/16 05:00:26;;;;;;;5.63;5.10;;;10.20;99.90;;;;;;5003101;28;20468;-67
2022/11/16 05:02:52;;;;;;;4.30;3.90;;;10.20;99.90;;;;;;4999378;28;20441;-67
2022/11/16 05:05:18;;;;;;;5.83;4.53;;;10.20;99.90;;;;;;5004370;28;20593;-67
2022/11/16 05:07:44;;;;;;;4.20;3.80;;;10.20;99.90;;;;;;4999466;28;20182;-67
2022/11/16 05:10:10;;;;;;;5.20;4.70;;;10.20;99.90;;;;;;4992069;28;20191;-67
2022/11/16 05:12:36;;;;;;;5.60;5.10;;;10.20;99.90;;;;;;4999130;28;20804;-68
2022/11/16 05:15:02;;;;;;;5.20;4.70;;;10.20;99.90;;;;;;4989364;28;20438;-67
2022/11/16 05:17:28;;;;;;;5.40;4.90;;;10.20;99.90;;;;;;4999939;28;20183;-68
2022/11/16 05:22:38;;;;;;;11.10;5.33;;;10.20;99.90;;;;;;4998371;28;20859;-67
2022/11/16 05:25:05;;;;;;;6.90;6.20;;;10.30;99.90;;;;;;4994826;28;20863;-68
2022/11/16 05:27:31;;;;;;;7.53;6.60;;;10.30;99.90;;;;;;4991801;28;20443;-68
2022/11/16 05:29:57;;;;;;;5.67;5.03;;;10.30;99.90;;;;;;4996986;28;20450;-68
2022/11/16 05:32:24;;;;;;;5.90;4.73;;;10.20;99.90;;;;;;5004565;28;20241;-67
2022/11/16 05:34:50;;;;;;;6.27;5.67;;;10.20;99.90;;;;;;4990797;28;20516;-68
2022/11/16 05:37:16;;;;;;;5.00;4.53;;;10.20;99.90;;;;;;4997217;28;20882;-67
2022/11/16 05:39:42;;;;;;;4.87;4.47;;;10.20;99.90;;;;;;4993441;28;20187;-67
2022/11/16 05:42:08;;;;;;;5.97;5.43;;;10.20;99.90;;;;;;4993830;28;20544;-67
2022/11/16 05:44:33;;;;;;;7.47;5.10;;;10.20;99.90;;;;;;4989495;28;20610;-67
2022/11/16 05:46:59;;;;;;;4.73;4.33;;;10.20;99.90;;;;;;4989111;28;20217;-67
2022/11/16 05:49:25;;;;;;;7.23;4.57;;;10.10;99.90;;;;;;4992043;28;20176;-67
2022/11/16 05:51:50;;;;;;;4.37;3.57;;;10.10;99.90;;;;;;5009626;28;20175;-67
2022/11/16 05:54:21;;;;;;;4.13;3.30;;;10.20;99.90;;;;;;4999385;28;20201;-67
2022/11/16 05:56:47;;;;;;;5.07;4.10;;;10.10;99.90;;;;;;5003671;28;20206;-68
2022/11/16 05:59:15;;;;;;;4.20;3.80;;;10.20;99.90;;;;;;5002245;28;20431;-67
2022/11/16 06:01:41;;;;;;;4.50;3.70;;;10.20;99.90;;;;;;4997894;28;20972;-67
2022/11/16 06:04:07;;;;;;;4.20;3.90;;;10.20;99.90;;;;;;5001570;28;20438;-67
2022/11/16 06:06:33;;;;;;;3.77;3.47;;;10.10;99.90;;;;;;4996377;28;21502;-67
2022/11/16 06:08:58;;;;;;;5.00;4.40;;;10.10;99.90;;;;;;5000495;28;20537;-67
2022/11/16 06:11:24;;;;;;;4.73;4.10;;;10.10;99.90;;;;;;5009347;28;20183;-67
2022/11/16 06:13:50;;;;;;;4.90;4.47;;;10.00;99.90;;;;;;5002520;28;20640;-67
2022/11/16 06:16:16;;;;;;;5.10;4.70;;;10.00;99.90;;;;;;4993703;28;20212;-67
2022/11/16 06:18:44;;;;;;;5.53;5.03;;;10.00;99.90;;;;;;4995030;28;20648;-67
2022/11/16 06:21:11;;;;;;;5.70;5.20;;;9.90;99.90;;;;;;5003216;28;20433;-67
2022/11/16 06:23:37;;;;;;;6.87;6.17;;;9.90;99.90;;;;;;4998330;28;20497;-67
2022/11/16 06:26:03;;;;;;;9.23;7.03;;;10.00;99.90;;;;;;4995455;28;20982;-67
2022/11/16 06:28:29;;;;;;;10.73;8.10;;;9.90;99.90;;;;;;4999146;28;20915;-67
2022/11/16 06:30:55;;;;;;;10.50;7.53;;;9.90;99.90;;;;;;5003565;28;20434;-67
2022/11/16 06:33:21;;;;;;;6.80;5.50;;;9.90;99.90;;;;;;4994858;28;20193;-67
2022/11/16 06:35:46;;;;;;;7.43;5.93;;;10.00;99.90;;;;;;5001074;28;20605;-67
2022/11/16 06:38:19;;;;;;;8.47;6.30;;;10.00;99.90;;;;;;4996941;28;20525;-67
2022/11/16 06:40:48;;;;;;;10.47;8.17;;;10.00;99.90;;;;;;4997767;28;20518;-67
2022/11/16 06:43:14;;;;;;;6.90;6.30;;;10.00;99.90;;;;;;5004513;28;20446;-67
2022/11/16 06:45:39;;;;;;;5.37;4.80;;;10.00;99.90;;;;;;4997853;28;20467;-67
2022/11/16 06:48:05;;;;;;;4.60;4.20;;;10.10;99.90;;;;;;4999783;28;20190;-67
2022/11/16 06:50:31;;;;;;;8.80;6.67;;;10.10;99.90;;;;;;4999138;28;20182;-67
2022/11/16 06:52:59;;;;;;;5.03;4.53;;;10.10;99.90;;;;;;4996822;28;20638;-67
2022/11/16 06:55:25;;;;;;;4.90;4.40;;;10.10;99.90;;;;;;4998177;28;20569;-67
2022/11/16 06:57:51;;;;;;;8.90;3.93;;;10.10;99.90;;;;;;4999979;28;20440;-67
2022/11/16 07:00:17;;;;;;;4.00;3.50;;;10.10;99.90;;;;;;4997488;28;20966;-67
2022/11/16 07:02:42;;;;;;;4.43;3.00;;;10.10;99.90;;;;;;5000132;28;20191;-67
2022/11/16 07:07:44;;;;;;;4.70;4.00;;;10.10;99.90;;;;;;4951512;28;20215;-66
2022/11/16 07:10:10;;;;;;;4.80;4.40;;;10.20;99.90;;;;;;4950446;29;20937;-66
2022/11/16 07:12:35;;;;;;;4.67;4.20;;;10.20;99.90;;;;;;4952559;28;20503;-65
2022/11/16 07:15:01;;;;;;;6.93;4.20;;;10.20;99.90;;;;;;4949610;28;20231;-65
2022/11/16 07:17:27;;;;;;;7.00;4.30;;;10.20;99.90;;;;;;4947067;29;20200;-66
2022/11/16 07:19:52;;;;;;;4.10;3.70;;;10.20;99.90;;;;;;4947647;28;20185;-65
2022/11/16 07:22:18;;;;;;;7.00;4.63;;;10.20;99.90;;;;;;4952026;29;20561;-66
2022/11/16 07:24:43;;;;;;;4.77;4.33;;;10.20;99.90;;;;;;4950222;28;20181;-66
2022/11/16 07:27:09;;;;;;;5.80;4.73;;;10.20;99.90;;;;;;4951156;28;20199;-65
2022/11/16 07:29:34;;;;;;;4.50;4.07;;;10.20;99.90;;;;;;4951369;28;20181;-65
2022/11/16 07:32:00;;;;;;;4.53;4.07;;;10.20;99.90;;;;;;4949902;28;20189;-66
2022/11/16 07:34:26;;;;;;;4.20;3.77;;;10.30;99.90;;;;;;4945501;28;20181;-66
2022/11/16 07:36:51;;;;;;;3.90;3.57;;;10.30;99.90;;;;;;4956576;28;20216;-65
2022/11/16 07:39:17;;;;;;;3.77;3.40;;;10.20;99.90;;;;;;4960270;28;20539;-66
2022/11/16 07:41:43;;;;;;;2.60;2.20;;;10.30;99.90;;;;;;4951614;28;20682;-64
2022/11/16 07:44:09;;;;;;;2.57;2.37;;;10.20;99.90;;;;;;4921598;28;20190;-65
2022/11/16 07:46:34;;;;;;;4.40;3.93;;;10.30;99.90;;;;;;4915214;28;20476;-66
2022/11/16 07:49:00;;;;;;;3.30;3.00;;;10.30;99.90;;;;;;4957681;28;20180;-66
2022/11/16 07:51:25;;;;;;;2.10;1.70;;;10.30;99.90;;;;;;4952865;28;20253;-65
2022/11/16 07:53:54;;;;;;;2.23;1.40;;;10.40;99.90;;;;;;4943269;28;20179;-66
2022/11/16 07:56:20;;;;;;;3.40;1.60;;;10.50;99.90;;;;;;4942218;28;20206;-64
2022/11/16 07:58:46;;;;;;;2.33;2.13;;;10.60;99.90;;;;;;4940538;29;20531;-66
2022/11/16 08:01:14;;;;;;;2.30;1.93;;;10.60;99.90;;;;;;4945996;28;20995;-65
2022/11/16 08:03:41;;;;;;;3.40;1.93;;;10.60;99.90;;;;;;4938726;28;20630;-65
2022/11/16 08:06:11;;;;;;;2.80;1.50;;;10.70;99.90;;;;;;4945628;28;20473;-68
2022/11/16 08:08:36;;;;;;;2.00;1.70;;;10.80;99.90;;;;;;4944834;28;20972;-68
2022/11/16 08:11:04;;;;;;;3.03;2.73;;;10.90;99.90;;;;;;4959139;28;20431;-68
2022/11/16 08:13:33;;;;;;;2.67;2.00;;;11.00;99.90;;;;;;4953107;28;20228;-68
2022/11/16 08:16:08;;;;;;;2.13;1.50;;;11.20;99.90;;;;;;4952558;28;20452;-66
2022/11/16 08:18:34;;;;;;;4.00;1.70;;;11.50;99.90;;;;;;4944306;29;20440;-67
2022/11/16 08:21:01;;;;;;;2.80;1.20;;;11.70;99.90;;;;;;4950784;28;20542;-68
2022/11/16 08:23:28;;;;;;;13.10;7.77;;;12.00;99.90;;;;;;4949108;28;20453;-68
2022/11/16 08:26:01;;;;;;;3.57;3.27;;;12.00;99.90;;;;;;4954311;28;21048;-67
2022/11/16 08:28:28;;;;;;;2.77;2.50;;;12.00;99.90;;;;;;4954540;28;20447;-68
2022/11/16 08:30:54;;;;;;;4.37;2.10;;;12.20;99.90;;;;;;4950202;28;20436;-68
2022/11/16 08:33:20;;;;;;;2.73;1.70;;;13.30;99.90;;;;;;4949553;28;20440;-67
2022/11/16 08:35:49;;;;;;;7.50;6.80;;;14.10;99.90;;;;;;4953145;28;20452;-67
2022/11/16 08:38:17;;;;;;;5.50;4.33;;;14.40;99.90;;;;;;4951534;28;20452;-66
2022/11/16 08:40:43;;;;;;;6.20;5.00;;;14.20;99.90;;;;;;4949006;28;20443;-67
2022/11/16 08:43:09;;;;;;;14.10;5.20;;;14.00;99.90;;;;;;4948758;29;20447;-66
2022/11/16 08:45:36;;;;;;;2.80;1.67;;;13.70;99.90;;;;;;4953258;28;21189;-68
2022/11/16 08:48:03;;;;;;;2.27;1.23;;;13.50;99.90;;;;;;4951479;28;20429;-67
2022/11/16 08:50:29;;;;;;;1.97;1.47;;;13.10;99.90;;;;;;4958000;28;20435;-67
2022/11/16 08:52:58;;;;;;;2.27;2.07;;;13.00;99.90;;;;;;4947034;28;20963;-67
2022/11/16 08:55:25;;;;;;;3.70;1.57;;;12.90;99.90;;;;;;4955137;28;20440;-68
2022/11/16 08:57:51;;;;;;;1.70;1.20;;;13.00;99.90;;;;;;4951993;28;20945;-67
2022/11/16 09:00:17;;;;;;;2.60;1.30;;;13.00;99.90;;;;;;4950959;28;20523;-67
2022/11/16 09:02:43;;;;;;;1.23;1.03;;;12.80;99.90;;;;;;4936710;28;20553;-66
2022/11/16 09:05:10;;;;;;;2.60;1.33;;;12.70;99.90;;;;;;4945911;28;20475;-67
2022/11/16 09:07:37;;;;;;;4.93;4.37;;;12.70;99.90;;;;;;4954671;28;20646;-68
2022/11/16 09:10:03;;;;;;;3.60;2.20;;;12.80;99.90;;;;;;4952924;28;20957;-68
2022/11/16 09:12:28;;;;;;;3.03;1.77;;;12.90;99.90;;;;;;4950286;28;20436;-67
2022/11/16 09:14:54;;;;;;;2.87;1.97;;;12.90;99.90;;;;;;4953423;28;21009;-67
2022/11/16 09:17:19;;;;;;;3.27;1.47;;;14.20;99.90;;;;;;4957192;28;20295;-68
2022/11/16 09:19:45;;;;;;;3.20;1.77;;;16.10;99.90;;;;;;4949417;28;20181;-68
2022/11/16 09:22:10;;;;;;;1.70;1.40;;;18.10;99.90;;;;;;4955735;28;20173;-68
2022/11/16 09:24:36;;;;;;;1.60;1.50;;;19.50;99.90;;;;;;4950831;28;20201;-68
2022/11/16 09:27:01;;;;;;;2.00;1.80;;;19.70;99.90;;;;;;4950257;28;20235;-67
2022/11/16 09:29:27;;;;;;;3.03;1.63;;;19.20;99.90;;;;;;4962393;28;20173;-68
2022/11/16 09:31:53;;;;;;;1.50;1.40;;;18.50;99.90;;;;;;4957070;28;20184;-68
2022/11/16 09:34:19;;;;;;;3.53;3.23;;;17.70;99.90;;;;;;4945868;28;20558;-67
2022/11/16 09:36:44;;;;;;;7.13;6.13;;;17.30;99.90;;;;;;4954175;28;20460;-67
2022/11/16 09:39:11;;;;;;;3.90;3.53;;;16.80;99.90;;;;;;4953706;28;20193;-67
2022/11/16 09:41:53;;;;;;;7.03;6.43;;;16.30;99.90;;;;;;4952577;28;20180;-68
2022/11/16 09:44:54;;;;;;;4.27;1.33;;;15.50;99.90;;;;;;4940421;29;20500;-68
2022/11/16 09:47:22;;;;;;;2.20;2.00;;;14.40;99.90;;;;;;4912336;29;21051;-67
2022/11/16 09:49:52;;;;;;;2.20;1.83;;;13.70;99.90;;;;;;4950994;28;20440;-67
2022/11/16 09:52:40;;;;;;;2.40;1.97;;;13.60;99.90;;;;;;4975729;28;20466;-68
2022/11/16 09:55:19;;;;;;;1.50;1.40;;;13.70;99.90;;;;;;4942804;28;20809;-67
2022/11/16 09:57:46;;;;;;;1.50;1.40;;;13.30;99.90;;;;;;4961044;28;20460;-68
2022/11/16 10:00:20;;;;;;;1.20;1.10;;;13.20;99.90;;;;;;4961514;28;20523;-67
2022/11/16 10:03:11;;;;;;;1.40;1.30;;;14.00;99.90;;;;;;4957107;28;20791;-67
2022/11/16 10:05:43;;;;;;;3.50;2.10;;;17.20;99.90;;;;;;4952404;28;20495;-68
2022/11/16 10:08:40;;;;;;;1.53;1.43;;;19.60;99.90;;;;;;4947792;28;20456;-67
2022/11/16 10:11:30;;;;;;;4.20;3.80;;;18.90;99.90;;;;;;4962371;28;20428;-68
2022/11/16 10:14:06;;;;;;;2.00;1.90;;;17.70;99.90;;;;;;4943418;28;20445;-68
2022/11/16 10:16:56;;;;;;;3.90;1.80;;;16.60;99.90;;;;;;4950146;28;20806;-68
2022/11/16 10:19:33;;;;;;;5.07;2.00;;;16.30;99.90;;;;;;4957550;28;20443;-67
2022/11/16 10:22:19;;;;;;;1.37;1.30;;;15.90;99.90;;;;;;4950067;29;20431;-68
2022/11/16 10:25:16;;;;;;;1.40;1.30;;;15.80;99.90;;;;;;4939907;28;20433;-67
2022/11/16 10:28:12;;;;;;;2.27;1.70;;;16.00;99.90;;;;;;4951640;28;20792;-67
2022/11/16 10:30:47;;;;;;;1.73;1.43;;;15.50;99.90;;;;;;4956408;28;20436;-67
2022/11/16 10:33:18;;;;;;;2.53;1.40;;;15.10;99.90;;;;;;4950465;28;20479;-66
2022/11/16 10:35:47;;;;;;;1.70;1.23;;;14.80;99.90;;;;;;4944740;28;20471;-67
2022/11/16 10:38:31;;;;;;;7.70;4.23;;;14.90;99.90;;;;;;4947457;28;20938;-67
2022/11/16 10:41:02;;;;;;;1.93;1.83;;;14.70;99.90;;;;;;4948645;28;20447;-68
2022/11/16 10:43:30;;;;;;;3.53;2.23;;;14.70;99.90;;;;;;4944632;28;20457;-68
2022/11/16 10:46:14;;;;;;;4.50;2.80;;;14.90;99.90;;;;;;4943161;28;21002;-67
2022/11/16 10:48:55;;;;;;;2.93;1.90;;;17.10;99.90;;;;;;4951179;28;20964;-68
2022/11/16 10:51:21;;;;;;;2.43;1.60;;;18.80;99.90;;;;;;4947788;28;20535;-68
2022/11/16 10:53:47;;;;;;;6.43;3.73;;;20.90;99.90;;;;;;4950549;28;20523;-67
2022/11/16 10:56:14;;;;;;;1.47;1.37;;;22.40;99.90;;;;;;4943106;28;20573;-69
2022/11/16 10:59:06;;;;;;;4.70;1.60;;;22.90;99.90;;;;;;4960226;28;20188;-68
2022/11/16 11:01:45;;;;;;;1.87;1.50;;;25.20;96.60;;;;;;4958876;28;20441;-67
2022/11/16 11:04:12;;;;;;;4.83;1.93;;;26.10;90.40;;;;;;4942635;28;20552;-67
2022/11/16 11:06:38;;;;;;;3.90;1.80;;;25.10;87.80;;;;;;4942488;28;20532;-68
2022/11/16 11:09:20;;;;;;;1.43;1.33;;;25.40;85.00;;;;;;4956216;28;20475;-68
2022/11/16 11:14:56;;;;;;;2.00;1.60;;;26.20;81.10;;;;;;4941635;28;20475;-68
2022/11/16 11:17:21;;;;;;;1.30;1.20;;;26.00;78.20;;;;;;4954585;28;20479;-68
2022/11/16 11:19:56;;;;;;;1.17;1.00;;;24.00;81.50;;;;;;4947823;28;20476;-68
2022/11/16 11:22:22;;;;;;;2.20;1.20;;;23.50;88.30;;;;;;4965137;28;20188;-69
2022/11/16 11:24:48;;;;;;;1.53;1.00;;;23.90;83.80;;;;;;4946182;28;20535;-67
2022/11/16 11:27:21;;;;;;;2.07;1.40;;;25.10;79.40;;;;;;4948516;28;20213;-66
2022/11/16 11:29:51;;;;;;;3.40;1.10;;;27.70;73.30;;;;;;4953625;28;20734;-68
2022/11/16 11:32:18;;;;;;;1.90;1.30;;;27.90;64.40;;;;;;4954030;28;20778;-68
2022/11/16 11:34:47;;;;;;;1.30;1.20;;;29.30;61.50;;;;;;4940117;28;20495;-68
2022/11/16 11:37:31;;;;;;;2.07;1.30;;;28.80;58.00;;;;;;4964004;28;20463;-66
2022/11/16 11:40:17;;;;;;;1.37;1.20;;;26.80;61.20;;;;;;4948724;28;20440;-66
2022/11/16 11:42:55;;;;;;;5.60;1.30;;;25.60;67.40;;;;;;4959482;28;20589;-65
2022/11/16 11:45:32;;;;;;;1.30;1.20;;;27.70;61.70;;;;;;4943754;28;22702;-64
2022/11/16 11:48:01;;;;;;;1.47;1.37;;;29.80;56.40;;;;;;4954920;28;20519;-64
2022/11/16 11:50:48;;;;;;;1.47;1.37;;;31.10;53.50;;;;;;4954988;28;20432;-63
2022/11/16 11:53:29;;;;;;;2.00;1.13;;;32.00;48.90;;;;;;4949563;28;20770;-64
2022/11/16 11:55:57;;;;;;;2.40;1.10;;;28.30;51.80;;;;;;4953872;28;20470;-66
2022/11/16 11:58:31;;;;;;;0.93;0.77;;;26.70;53.10;;;;;;4954317;28;20439;-66
2022/11/16 12:01:00;;;;;;;1.90;1.50;;;23.90;58.20;;;;;;4954280;28;20447;-67
2022/11/16 12:03:40;;;;;;;1.00;0.90;;;22.30;60.70;;;;;;4945471;28;20448;-67
2022/11/16 12:06:32;;;;;;;1.10;1.00;;;20.40;70.40;;;;;;4946577;28;20550;-67
2022/11/16 12:09:04;;;;;;;1.70;1.10;;;19.60;79.80;;;;;;4963634;28;20523;-69
2022/11/16 12:11:43;;;;;;;1.67;0.90;;;18.70;86.30;;;;;;4959443;28;20432;-67
2022/11/16 12:14:27;;;;;;;1.93;1.13;;;18.60;87.50;;;;;;4948133;28;21050;-65
2022/11/16 12:17:14;;;;;;;1.20;1.10;;;21.60;72.20;;;;;;4954103;28;20459;-67
2022/11/16 12:20:01;;;;;;;1.87;1.10;;;23.90;62.60;;;;;;4945922;28;20464;-67
2022/11/16 12:22:59;;;;;;;2.60;1.13;;;24.70;58.80;;;;;;4945964;28;21057;-67
2022/11/16 12:25:49;;;;;;;1.67;1.03;;;22.90;59.80;;;;;;4915390;28;22189;-67
2022/11/16 12:28:42;;;;;;;2.90;1.40;;;22.00;66.20;;;;;;4947567;28;20794;-68
2022/11/16 12:31:16;;;;;;;2.10;0.97;;;23.40;61.90;;;;;;4947878;28;20441;-67
2022/11/16 12:34:20;;;;;;;2.20;1.07;;;23.00;60.70;;;;;;4942105;28;20443;-67
2022/11/16 12:37:13;;;;;;;1.00;0.90;;;23.20;61.60;;;;;;4932457;28;20464;-66
2022/11/16 12:39:43;;;;;;;1.93;1.00;;;23.10;61.70;;;;;;4950637;28;20436;-68
2022/11/16 12:42:33;;;;;;;1.47;1.10;;;24.10;59.20;;;;;;4945353;28;20455;-68
2022/11/16 12:45:36;;;;;;;2.13;1.23;;;26.00;55.00;;;;;;4936241;28;20462;-68
2022/11/16 12:48:32;;;;;;;3.07;1.87;;;26.60;52.90;;;;;;4948783;28;20986;-69
2022/11/16 12:51:22;;;;;;;2.80;1.03;;;26.00;53.20;;;;;;4954930;28;20511;-67
2022/11/16 12:53:56;;;;;;;2.60;1.10;;;26.10;52.70;;;;;;4939336;28;20498;-72
2022/11/16 12:56:46;;;;;;;1.40;1.10;;;27.10;52.60;;;;;;4951563;28;20876;-71
2022/11/16 12:59:42;;;;;;;1.53;1.03;;;27.00;52.00;;;;;;4947120;28;20439;-71
2022/11/16 13:02:54;;;;;;;5.00;1.13;;;26.00;51.90;;;;;;4949153;28;20804;-71
2022/11/16 13:05:38;;;;;;;1.30;1.07;;;26.00;53.20;;;;;;4937099;28;20539;-70
2022/11/16 13:08:11;;;;;;;1.83;1.27;;;27.20;51.20;;;;;;4950540;28;20443;-71
2022/11/16 13:10:44;;;;;;;1.50;1.40;;;28.40;48.50;;;;;;4949724;28;20476;-71
2022/11/16 13:13:15;;;;;;;1.10;1.00;;;29.10;47.40;;;;;;4953076;28;20440;-69
2022/11/16 13:15:45;;;;;;;2.50;1.00;;;29.60;45.80;;;;;;4948648;28;20977;-70
2022/11/16 13:18:15;;;;;;;1.17;0.70;;;28.60;45.40;;;;;;4952466;28;20445;-71
2022/11/16 13:20:52;;;;;;;2.00;1.40;;;27.40;47.50;;;;;;4964277;28;20479;-71
2022/11/16 13:23:30;;;;;;;1.83;0.83;;;27.90;47.00;;;;;;4950077;28;20441;-71
2022/11/16 13:26:00;;;;;;;1.43;1.00;;;27.70;47.00;;;;;;4948180;28;20471;-71
2022/11/16 13:28:53;;;;;;;2.27;1.10;;;28.20;46.70;;;;;;4951862;28;20444;-72
2022/11/16 13:31:40;;;;;;;1.97;1.30;;;26.40;46.90;;;;;;4948122;28;20437;-71
2022/11/16 13:34:23;;;;;;;2.53;1.77;;;26.00;47.40;;;;;;4951151;28;20441;-71
2022/11/16 13:36:49;;;;;;;1.33;1.20;;;24.50;49.50;;;;;;4953139;28;20451;-71
2022/11/16 13:39:19;;;;;;;3.63;1.20;;;22.70;52.00;;;;;;4960936;28;20513;-70
2022/11/16 13:41:50;;;;;;;4.80;1.93;;;21.60;55.00;;;;;;4958538;28;20204;-71
2022/11/16 13:44:17;;;;;;;1.20;1.00;;;20.70;56.50;;;;;;4947184;28;20464;-71
2022/11/16 13:46:47;;;;;;;1.73;1.03;;;19.20;61.00;;;;;;4952262;28;20479;-71
2022/11/16 13:49:29;;;;;;;1.33;1.00;;;18.70;65.80;;;;;;4954559;28;20432;-71
2022/11/16 13:51:58;;;;;;;2.33;1.03;;;17.90;71.70;;;;;;4951794;28;21092;-71